sensor_id;sensor_type;location;lat;lon;timestamp;P1;durP1;ratioP1;P2;durP2;ratioP2
84161;SDS011;74285;52.372;12.924;2024-03-02T00:02:23;54.60;;;21.27;;
84161;SDS011;74285;52.372;12.924;2024-03-02T00:04:48;46.00;;;19.67;;
84161;SDS011;74285;52.372;12.924;2024-03-02T00:07:14;49.05;;;20.55;;
84161;SDS011;74285;52.372;12.924;2024-03-02T00:09:39;47.97;;;20.15;;
84161;SDS011;74285;52.372;12.924;2024-03-02T00:12:05;45.00;;;20.70;;
84161;SDS011;74285;52.372;12.924;2024-03-02T00:14:30;51.30;;;21.55;;
84161;SDS011;74285;52.372;12.924;2024-03-02T00:16:56;45.97;;;20.57;;
84161;SDS011;74285;52.372;12.924;2024-03-02T00:19:21;44.47;;;19.73;;
84161;SDS011;74285;52.372;12.924;2024-03-02T00:21:46;47.77;;;20.47;;
84161;SDS011;74285;52.372;12.924;2024-03-02T00:24:17;48.45;;;20.17;;
84161;SDS011;74285;52.372;12.924;2024-03-02T00:26:45;45.92;;;19.88;;
84161;SDS011;74285;52.372;12.924;2024-03-02T00:29:11;53.53;;;22.10;;
84161;SDS011;74285;52.372;12.924;2024-03-02T00:31:41;46.22;;;22.33;;
84161;SDS011;74285;52.372;12.924;2024-03-02T00:34:06;47.25;;;20.88;;
84161;SDS011;74285;52.372;12.924;2024-03-02T00:36:31;49.57;;;21.73;;
84161;SDS011;74285;52.372;12.924;2024-03-02T00:38:57;49.15;;;21.17;;
84161;SDS011;74285;52.372;12.924;2024-03-02T00:43:57;49.90;;;20.90;;
84161;SDS011;74285;52.372;12.924;2024-03-02T00:46:29;43.85;;;19.52;;
84161;SDS011;74285;52.372;12.924;2024-03-02T00:48:57;47.92;;;22.08;;
84161;SDS011;74285;52.372;12.924;2024-03-02T00:53:49;46.95;;;21.80;;
84161;SDS011;74285;52.372;12.924;2024-03-02T00:56:15;52.03;;;22.30;;
84161;SDS011;74285;52.372;12.924;2024-03-02T00:58:41;47.63;;;20.50;;
84161;SDS011;74285;52.372;12.924;2024-03-02T01:01:06;51.43;;;20.70;;
84161;SDS011;74285;52.372;12.924;2024-03-02T01:03:32;44.25;;;19.15;;
84161;SDS011;74285;52.372;12.924;2024-03-02T01:05:58;49.83;;;21.38;;
84161;SDS011;74285;52.372;12.924;2024-03-02T01:08:27;50.05;;;21.05;;
84161;SDS011;74285;52.372;12.924;2024-03-02T01:10:52;46.43;;;19.30;;
84161;SDS011;74285;52.372;12.924;2024-03-02T01:13:17;51.00;;;21.07;;
84161;SDS011;74285;52.372;12.924;2024-03-02T01:15:43;49.87;;;19.83;;
84161;SDS011;74285;52.372;12.924;2024-03-02T01:18:08;45.22;;;19.77;;
84161;SDS011;74285;52.372;12.924;2024-03-02T01:20:34;52.50;;;20.07;;
84161;SDS011;74285;52.372;12.924;2024-03-02T01:22:59;45.57;;;19.50;;
84161;SDS011;74285;52.372;12.924;2024-03-02T01:25:24;48.33;;;19.37;;
84161;SDS011;74285;52.372;12.924;2024-03-02T01:27:50;47.53;;;20.27;;
84161;SDS011;74285;52.372;12.924;2024-03-02T01:30:15;49.40;;;20.35;;
84161;SDS011;74285;52.372;12.924;2024-03-02T01:32:40;47.40;;;19.80;;
84161;SDS011;74285;52.372;12.924;2024-03-02T01:35:06;48.43;;;19.57;;
84161;SDS011;74285;52.372;12.924;2024-03-02T01:37:32;45.85;;;20.48;;
84161;SDS011;74285;52.372;12.924;2024-03-02T01:39:57;46.97;;;19.13;;
84161;SDS011;74285;52.372;12.924;2024-03-02T01:42:23;48.75;;;20.23;;
84161;SDS011;74285;52.372;12.924;2024-03-02T01:44:49;44.35;;;19.58;;
84161;SDS011;74285;52.372;12.924;2024-03-02T01:47:14;45.13;;;20.17;;
84161;SDS011;74285;52.372;12.924;2024-03-02T01:49:39;50.10;;;20.20;;
84161;SDS011;74285;52.372;12.924;2024-03-02T01:52:06;52.95;;;21.77;;
84161;SDS011;74285;52.372;12.924;2024-03-02T01:54:31;51.83;;;20.65;;
84161;SDS011;74285;52.372;12.924;2024-03-02T01:56:56;48.97;;;19.77;;
84161;SDS011;74285;52.372;12.924;2024-03-02T01:59:22;45.00;;;20.45;;
84161;SDS011;74285;52.372;12.924;2024-03-02T02:01:47;50.20;;;19.03;;
84161;SDS011;74285;52.372;12.924;2024-03-02T02:04:12;47.73;;;20.33;;
84161;SDS011;74285;52.372;12.924;2024-03-02T02:06:38;46.70;;;20.15;;
84161;SDS011;74285;52.372;12.924;2024-03-02T02:09:03;45.65;;;19.55;;
84161;SDS011;74285;52.372;12.924;2024-03-02T02:11:29;53.50;;;20.07;;
84161;SDS011;74285;52.372;12.924;2024-03-02T02:13:54;44.67;;;19.77;;
84161;SDS011;74285;52.372;12.924;2024-03-02T02:16:20;46.00;;;20.88;;
84161;SDS011;74285;52.372;12.924;2024-03-02T02:18:46;46.30;;;19.85;;
84161;SDS011;74285;52.372;12.924;2024-03-02T02:21:11;52.27;;;20.63;;
84161;SDS011;74285;52.372;12.924;2024-03-02T02:23:36;52.07;;;21.30;;
84161;SDS011;74285;52.372;12.924;2024-03-02T02:26:02;46.37;;;19.07;;
84161;SDS011;74285;52.372;12.924;2024-03-02T02:28:27;39.88;;;17.98;;
84161;SDS011;74285;52.372;12.924;2024-03-02T02:30:54;42.65;;;19.00;;
84161;SDS011;74285;52.372;12.924;2024-03-02T02:33:21;38.90;;;18.17;;
84161;SDS011;74285;52.372;12.924;2024-03-02T02:35:46;44.20;;;19.53;;
84161;SDS011;74285;52.372;12.924;2024-03-02T02:38:11;44.73;;;19.70;;
84161;SDS011;74285;52.372;12.924;2024-03-02T02:40:37;43.83;;;18.37;;
84161;SDS011;74285;52.372;12.924;2024-03-02T02:43:02;50.47;;;21.80;;
84161;SDS011;74285;52.372;12.924;2024-03-02T02:45:28;45.85;;;21.95;;
84161;SDS011;74285;52.372;12.924;2024-03-02T02:47:53;45.77;;;20.43;;
84161;SDS011;74285;52.372;12.924;2024-03-02T02:50:19;45.40;;;20.33;;
84161;SDS011;74285;52.372;12.924;2024-03-02T02:52:44;48.53;;;21.40;;
84161;SDS011;74285;52.372;12.924;2024-03-02T02:55:10;43.83;;;20.33;;
84161;SDS011;74285;52.372;12.924;2024-03-02T02:57:37;58.15;;;24.05;;
84161;SDS011;74285;52.372;12.924;2024-03-02T03:00:13;48.58;;;21.73;;
84161;SDS011;74285;52.372;12.924;2024-03-02T03:02:40;49.40;;;22.83;;
84161;SDS011;74285;52.372;12.924;2024-03-02T03:05:07;47.25;;;20.60;;
84161;SDS011;74285;52.372;12.924;2024-03-02T03:09:59;48.45;;;19.88;;
84161;SDS011;74285;52.372;12.924;2024-03-02T03:12:24;47.03;;;20.50;;
84161;SDS011;74285;52.372;12.924;2024-03-02T03:14:50;45.57;;;18.77;;
84161;SDS011;74285;52.372;12.924;2024-03-02T03:17:15;49.30;;;20.63;;
84161;SDS011;74285;52.372;12.924;2024-03-02T03:19:40;46.93;;;21.20;;
84161;SDS011;74285;52.372;12.924;2024-03-02T03:22:05;47.10;;;19.83;;
84161;SDS011;74285;52.372;12.924;2024-03-02T03:24:31;47.77;;;19.40;;
84161;SDS011;74285;52.372;12.924;2024-03-02T03:26:57;44.83;;;20.52;;
84161;SDS011;74285;52.372;12.924;2024-03-02T03:29:23;51.33;;;19.97;;
84161;SDS011;74285;52.372;12.924;2024-03-02T03:31:48;47.70;;;20.97;;
84161;SDS011;74285;52.372;12.924;2024-03-02T03:34:13;48.83;;;20.60;;
84161;SDS011;74285;52.372;12.924;2024-03-02T03:36:41;50.78;;;21.17;;
84161;SDS011;74285;52.372;12.924;2024-03-02T03:39:06;48.63;;;20.63;;
84161;SDS011;74285;52.372;12.924;2024-03-02T03:41:31;49.43;;;21.63;;
84161;SDS011;74285;52.372;12.924;2024-03-02T03:43:57;56.78;;;23.30;;
84161;SDS011;74285;52.372;12.924;2024-03-02T03:46:22;59.00;;;23.23;;
84161;SDS011;74285;52.372;12.924;2024-03-02T03:48:47;45.90;;;21.37;;
84161;SDS011;74285;52.372;12.924;2024-03-02T03:51:13;49.70;;;20.55;;
84161;SDS011;74285;52.372;12.924;2024-03-02T03:53:38;53.20;;;21.07;;
84161;SDS011;74285;52.372;12.924;2024-03-02T03:56:04;52.53;;;22.33;;
84161;SDS011;74285;52.372;12.924;2024-03-02T03:58:29;49.17;;;20.85;;
84161;SDS011;74285;52.372;12.924;2024-03-02T04:00:54;49.37;;;21.87;;
84161;SDS011;74285;52.372;12.924;2024-03-02T04:03:20;49.23;;;23.03;;
84161;SDS011;74285;52.372;12.924;2024-03-02T04:05:45;48.83;;;22.77;;
84161;SDS011;74285;52.372;12.924;2024-03-02T04:08:10;45.37;;;21.23;;
84161;SDS011;74285;52.372;12.924;2024-03-02T04:10:36;47.30;;;21.60;;
84161;SDS011;74285;52.372;12.924;2024-03-02T04:13:02;57.10;;;22.63;;
84161;SDS011;74285;52.372;12.924;2024-03-02T04:15:27;48.00;;;22.30;;
84161;SDS011;74285;52.372;12.924;2024-03-02T04:17:52;44.13;;;22.27;;
84161;SDS011;74285;52.372;12.924;2024-03-02T04:20:17;51.13;;;23.87;;
84161;SDS011;74285;52.372;12.924;2024-03-02T04:22:43;50.17;;;22.23;;
84161;SDS011;74285;52.372;12.924;2024-03-02T04:25:08;56.67;;;22.37;;
84161;SDS011;74285;52.372;12.924;2024-03-02T04:27:34;45.70;;;21.77;;
84161;SDS011;74285;52.372;12.924;2024-03-02T04:29:59;52.45;;;21.17;;
84161;SDS011;74285;52.372;12.924;2024-03-02T04:32:26;48.90;;;22.20;;
84161;SDS011;74285;52.372;12.924;2024-03-02T04:34:52;50.35;;;21.77;;
84161;SDS011;74285;52.372;12.924;2024-03-02T04:37:17;50.17;;;21.67;;
84161;SDS011;74285;52.372;12.924;2024-03-02T04:39:42;51.67;;;22.57;;
84161;SDS011;74285;52.372;12.924;2024-03-02T04:42:07;51.53;;;21.57;;
84161;SDS011;74285;52.372;12.924;2024-03-02T04:44:33;52.40;;;23.23;;
84161;SDS011;74285;52.372;12.924;2024-03-02T04:46:58;55.50;;;23.93;;
84161;SDS011;74285;52.372;12.924;2024-03-02T04:49:23;57.90;;;22.73;;
84161;SDS011;74285;52.372;12.924;2024-03-02T04:51:49;53.93;;;23.97;;
84161;SDS011;74285;52.372;12.924;2024-03-02T04:54:14;55.60;;;22.50;;
84161;SDS011;74285;52.372;12.924;2024-03-02T04:56:39;53.07;;;21.53;;
84161;SDS011;74285;52.372;12.924;2024-03-02T04:59:14;53.25;;;21.60;;
84161;SDS011;74285;52.372;12.924;2024-03-02T05:01:40;50.13;;;21.73;;
84161;SDS011;74285;52.372;12.924;2024-03-02T05:04:05;51.17;;;21.73;;
84161;SDS011;74285;52.372;12.924;2024-03-02T05:06:30;53.73;;;23.07;;
84161;SDS011;74285;52.372;12.924;2024-03-02T05:08:56;45.17;;;21.00;;
84161;SDS011;74285;52.372;12.924;2024-03-02T05:11:21;49.45;;;21.23;;
84161;SDS011;74285;52.372;12.924;2024-03-02T05:14:02;45.33;;;20.90;;
84161;SDS011;74285;52.372;12.924;2024-03-02T05:16:27;49.83;;;22.57;;
84161;SDS011;74285;52.372;12.924;2024-03-02T05:18:52;47.87;;;22.10;;
84161;SDS011;74285;52.372;12.924;2024-03-02T05:21:17;54.23;;;22.67;;
84161;SDS011;74285;52.372;12.924;2024-03-02T05:23:43;51.17;;;21.10;;
84161;SDS011;74285;52.372;12.924;2024-03-02T05:26:09;47.63;;;21.65;;
84161;SDS011;74285;52.372;12.924;2024-03-02T05:28:36;54.55;;;22.45;;
84161;SDS011;74285;52.372;12.924;2024-03-02T05:31:02;49.33;;;21.77;;
84161;SDS011;74285;52.372;12.924;2024-03-02T05:33:27;55.37;;;23.37;;
84161;SDS011;74285;52.372;12.924;2024-03-02T05:35:53;54.33;;;23.42;;
84161;SDS011;74285;52.372;12.924;2024-03-02T05:38:18;50.45;;;22.60;;
84161;SDS011;74285;52.372;12.924;2024-03-02T05:40:43;56.87;;;23.73;;
84161;SDS011;74285;52.372;12.924;2024-03-02T05:43:09;57.00;;;26.00;;
84161;SDS011;74285;52.372;12.924;2024-03-02T05:45:34;59.67;;;25.63;;
84161;SDS011;74285;52.372;12.924;2024-03-02T05:47:59;52.03;;;24.97;;
84161;SDS011;74285;52.372;12.924;2024-03-02T05:50:25;48.40;;;21.57;;
84161;SDS011;74285;52.372;12.924;2024-03-02T05:52:50;50.27;;;22.67;;
84161;SDS011;74285;52.372;12.924;2024-03-02T05:55:15;54.58;;;22.90;;
84161;SDS011;74285;52.372;12.924;2024-03-02T05:57:41;54.80;;;23.33;;
84161;SDS011;74285;52.372;12.924;2024-03-02T06:00:09;53.88;;;22.65;;
84161;SDS011;74285;52.372;12.924;2024-03-02T06:02:34;51.22;;;22.00;;
84161;SDS011;74285;52.372;12.924;2024-03-02T06:05:02;51.92;;;22.27;;
84161;SDS011;74285;52.372;12.924;2024-03-02T06:07:27;50.55;;;22.80;;
84161;SDS011;74285;52.372;12.924;2024-03-02T06:09:52;49.13;;;21.70;;
84161;SDS011;74285;52.372;12.924;2024-03-02T06:12:18;46.17;;;20.40;;
84161;SDS011;74285;52.372;12.924;2024-03-02T06:14:44;48.13;;;20.10;;
84161;SDS011;74285;52.372;12.924;2024-03-02T06:17:09;49.17;;;22.73;;
84161;SDS011;74285;52.372;12.924;2024-03-02T06:19:34;57.73;;;22.07;;
84161;SDS011;74285;52.372;12.924;2024-03-02T06:21:59;54.47;;;23.67;;
84161;SDS011;74285;52.372;12.924;2024-03-02T06:24:25;55.17;;;22.17;;
84161;SDS011;74285;52.372;12.924;2024-03-02T06:26:51;53.28;;;21.25;;
84161;SDS011;74285;52.372;12.924;2024-03-02T06:29:16;49.15;;;22.17;;
84161;SDS011;74285;52.372;12.924;2024-03-02T06:31:42;49.90;;;21.77;;
84161;SDS011;74285;52.372;12.924;2024-03-02T06:34:07;55.00;;;22.03;;
84161;SDS011;74285;52.372;12.924;2024-03-02T06:36:33;47.05;;;21.02;;
84161;SDS011;74285;52.372;12.924;2024-03-02T06:38:58;50.47;;;21.35;;
84161;SDS011;74285;52.372;12.924;2024-03-02T06:41:24;50.47;;;22.67;;
84161;SDS011;74285;52.372;12.924;2024-03-02T06:43:49;52.43;;;21.60;;
84161;SDS011;74285;52.372;12.924;2024-03-02T06:46:14;53.80;;;21.47;;
84161;SDS011;74285;52.372;12.924;2024-03-02T06:48:40;47.80;;;20.57;;
84161;SDS011;74285;52.372;12.924;2024-03-02T06:51:05;52.07;;;21.37;;
84161;SDS011;74285;52.372;12.924;2024-03-02T06:53:30;48.93;;;20.33;;
84161;SDS011;74285;52.372;12.924;2024-03-02T06:55:58;45.92;;;20.55;;
84161;SDS011;74285;52.372;12.924;2024-03-02T06:58:23;48.67;;;20.70;;
84161;SDS011;74285;52.372;12.924;2024-03-02T07:00:49;47.47;;;20.03;;
84161;SDS011;74285;52.372;12.924;2024-03-02T07:03:14;46.43;;;19.67;;
84161;SDS011;74285;52.372;12.924;2024-03-02T07:05:39;50.17;;;20.73;;
84161;SDS011;74285;52.372;12.924;2024-03-02T07:08:05;43.97;;;19.90;;
84161;SDS011;74285;52.372;12.924;2024-03-02T07:10:30;45.90;;;19.75;;
84161;SDS011;74285;52.372;12.924;2024-03-02T07:12:56;47.03;;;19.20;;
84161;SDS011;74285;52.372;12.924;2024-03-02T07:15:21;47.83;;;19.47;;
84161;SDS011;74285;52.372;12.924;2024-03-02T07:17:58;44.65;;;19.83;;
84161;SDS011;74285;52.372;12.924;2024-03-02T07:20:24;44.13;;;19.10;;
84161;SDS011;74285;52.372;12.924;2024-03-02T07:22:49;44.73;;;20.33;;
84161;SDS011;74285;52.372;12.924;2024-03-02T07:25:14;48.37;;;20.57;;
84161;SDS011;74285;52.372;12.924;2024-03-02T07:27:39;45.73;;;19.83;;
84161;SDS011;74285;52.372;12.924;2024-03-02T07:30:05;50.92;;;19.88;;
84161;SDS011;74285;52.372;12.924;2024-03-02T07:32:31;45.95;;;20.30;;
84161;SDS011;74285;52.372;12.924;2024-03-02T07:34:57;43.97;;;19.85;;
84161;SDS011;74285;52.372;12.924;2024-03-02T07:37:23;43.60;;;18.20;;
84161;SDS011;74285;52.372;12.924;2024-03-02T07:39:48;49.80;;;19.05;;
84161;SDS011;74285;52.372;12.924;2024-03-02T07:42:13;40.65;;;19.42;;
84161;SDS011;74285;52.372;12.924;2024-03-02T07:44:39;46.47;;;19.00;;
84161;SDS011;74285;52.372;12.924;2024-03-02T07:47:04;46.13;;;20.50;;
84161;SDS011;74285;52.372;12.924;2024-03-02T07:49:29;46.77;;;19.97;;
84161;SDS011;74285;52.372;12.924;2024-03-02T07:51:55;47.90;;;20.10;;
84161;SDS011;74285;52.372;12.924;2024-03-02T07:54:20;43.30;;;19.25;;
84161;SDS011;74285;52.372;12.924;2024-03-02T07:56:45;42.80;;;20.83;;
84161;SDS011;74285;52.372;12.924;2024-03-02T08:01:37;50.97;;;20.03;;
84161;SDS011;74285;52.372;12.924;2024-03-02T08:04:02;39.60;;;18.67;;
84161;SDS011;74285;52.372;12.924;2024-03-02T08:06:30;44.80;;;19.20;;
84161;SDS011;74285;52.372;12.924;2024-03-02T08:08:56;43.50;;;18.75;;
84161;SDS011;74285;52.372;12.924;2024-03-02T08:11:22;42.65;;;18.65;;
84161;SDS011;74285;52.372;12.924;2024-03-02T08:13:48;40.87;;;18.57;;
84161;SDS011;74285;52.372;12.924;2024-03-02T08:16:14;43.13;;;18.77;;
84161;SDS011;74285;52.372;12.924;2024-03-02T08:18:40;43.47;;;19.30;;
84161;SDS011;74285;52.372;12.924;2024-03-02T08:21:05;46.27;;;21.67;;
84161;SDS011;74285;52.372;12.924;2024-03-02T08:23:32;41.22;;;19.50;;
84161;SDS011;74285;52.372;12.924;2024-03-02T08:25:58;38.80;;;17.80;;
84161;SDS011;74285;52.372;12.924;2024-03-02T08:28:23;40.00;;;17.67;;
84161;SDS011;74285;52.372;12.924;2024-03-02T08:30:49;45.00;;;19.97;;
84161;SDS011;74285;52.372;12.924;2024-03-02T08:33:14;40.23;;;17.07;;
84161;SDS011;74285;52.372;12.924;2024-03-02T08:35:39;42.25;;;18.98;;
84161;SDS011;74285;52.372;12.924;2024-03-02T08:38:05;48.47;;;21.27;;
84161;SDS011;74285;52.372;12.924;2024-03-02T08:40:30;46.20;;;19.30;;
84161;SDS011;74285;52.372;12.924;2024-03-02T08:42:56;45.90;;;19.98;;
84161;SDS011;74285;52.372;12.924;2024-03-02T08:45:21;39.40;;;18.60;;
84161;SDS011;74285;52.372;12.924;2024-03-02T08:47:46;44.90;;;18.65;;
84161;SDS011;74285;52.372;12.924;2024-03-02T08:50:12;51.58;;;23.40;;
84161;SDS011;74285;52.372;12.924;2024-03-02T08:52:37;46.47;;;20.37;;
84161;SDS011;74285;52.372;12.924;2024-03-02T08:55:02;47.13;;;21.90;;
84161;SDS011;74285;52.372;12.924;2024-03-02T08:57:28;51.05;;;22.40;;
84161;SDS011;74285;52.372;12.924;2024-03-02T08:59:53;61.03;;;26.87;;
84161;SDS011;74285;52.372;12.924;2024-03-02T09:02:18;54.77;;;26.40;;
84161;SDS011;74285;52.372;12.924;2024-03-02T09:04:44;55.37;;;23.43;;
84161;SDS011;74285;52.372;12.924;2024-03-02T09:07:09;51.47;;;23.73;;
84161;SDS011;74285;52.372;12.924;2024-03-02T09:09:34;47.60;;;19.57;;
84161;SDS011;74285;52.372;12.924;2024-03-02T09:12:00;43.97;;;19.67;;
84161;SDS011;74285;52.372;12.924;2024-03-02T09:14:25;45.40;;;19.75;;
84161;SDS011;74285;52.372;12.924;2024-03-02T09:16:50;46.30;;;19.97;;
84161;SDS011;74285;52.372;12.924;2024-03-02T09:19:16;44.30;;;20.33;;
84161;SDS011;74285;52.372;12.924;2024-03-02T09:21:41;61.05;;;28.90;;
84161;SDS011;74285;52.372;12.924;2024-03-02T09:24:07;40.95;;;18.88;;
84161;SDS011;74285;52.372;12.924;2024-03-02T09:26:32;41.23;;;18.63;;
84161;SDS011;74285;52.372;12.924;2024-03-02T09:28:57;42.67;;;20.27;;
84161;SDS011;74285;52.372;12.924;2024-03-02T09:31:23;39.73;;;19.43;;
84161;SDS011;74285;52.372;12.924;2024-03-02T09:33:48;44.40;;;20.00;;
84161;SDS011;74285;52.372;12.924;2024-03-02T09:36:17;44.07;;;18.80;;
84161;SDS011;74285;52.372;12.924;2024-03-02T09:38:43;42.72;;;18.75;;
84161;SDS011;74285;52.372;12.924;2024-03-02T09:41:08;40.70;;;18.60;;
84161;SDS011;74285;52.372;12.924;2024-03-02T09:43:34;44.00;;;19.07;;
84161;SDS011;74285;52.372;12.924;2024-03-02T09:45:59;46.80;;;19.13;;
84161;SDS011;74285;52.372;12.924;2024-03-02T09:48:25;36.80;;;18.02;;
84161;SDS011;74285;52.372;12.924;2024-03-02T09:50:50;39.90;;;17.53;;
84161;SDS011;74285;52.372;12.924;2024-03-02T09:53:15;43.53;;;19.17;;
84161;SDS011;74285;52.372;12.924;2024-03-02T09:55:41;36.92;;;17.98;;
84161;SDS011;74285;52.372;12.924;2024-03-02T09:58:11;42.63;;;17.33;;
84161;SDS011;74285;52.372;12.924;2024-03-02T10:00:37;40.50;;;18.55;;
84161;SDS011;74285;52.372;12.924;2024-03-02T10:03:02;41.00;;;18.87;;
84161;SDS011;74285;52.372;12.924;2024-03-02T10:05:33;38.83;;;17.77;;
84161;SDS011;74285;52.372;12.924;2024-03-02T10:07:58;35.85;;;17.38;;
84161;SDS011;74285;52.372;12.924;2024-03-02T10:10:26;42.75;;;18.52;;
84161;SDS011;74285;52.372;12.924;2024-03-02T10:13:03;38.38;;;18.00;;
84161;SDS011;74285;52.372;12.924;2024-03-02T10:15:30;40.50;;;17.52;;
84161;SDS011;74285;52.372;12.924;2024-03-02T10:17:55;33.60;;;16.63;;
84161;SDS011;74285;52.372;12.924;2024-03-02T10:20:21;35.80;;;16.90;;
84161;SDS011;74285;52.372;12.924;2024-03-02T10:22:48;32.05;;;15.95;;
84161;SDS011;74285;52.372;12.924;2024-03-02T10:25:28;36.83;;;16.23;;
84161;SDS011;74285;52.372;12.924;2024-03-02T10:27:57;35.35;;;16.77;;
84161;SDS011;74285;52.372;12.924;2024-03-02T10:30:28;38.47;;;17.15;;
84161;SDS011;74285;52.372;12.924;2024-03-02T10:32:54;33.03;;;16.55;;
84161;SDS011;74285;52.372;12.924;2024-03-02T10:35:20;34.15;;;15.63;;
84161;SDS011;74285;52.372;12.924;2024-03-02T10:37:49;32.08;;;15.57;;
84161;SDS011;74285;52.372;12.924;2024-03-02T10:40:14;31.13;;;14.77;;
84161;SDS011;74285;52.372;12.924;2024-03-02T10:42:40;31.17;;;15.25;;
84161;SDS011;74285;52.372;12.924;2024-03-02T10:45:06;39.97;;;15.90;;
84161;SDS011;74285;52.372;12.924;2024-03-02T10:47:34;31.63;;;13.55;;
84161;SDS011;74285;52.372;12.924;2024-03-02T10:50:01;28.92;;;13.88;;
84161;SDS011;74285;52.372;12.924;2024-03-02T10:52:31;29.73;;;14.07;;
84161;SDS011;74285;52.372;12.924;2024-03-02T10:57:21;29.30;;;14.20;;
84161;SDS011;74285;52.372;12.924;2024-03-02T10:59:53;28.05;;;13.80;;
84161;SDS011;74285;52.372;12.924;2024-03-02T11:02:21;25.88;;;14.02;;
84161;SDS011;74285;52.372;12.924;2024-03-02T11:07:12;29.40;;;13.30;;
84161;SDS011;74285;52.372;12.924;2024-03-02T11:12:13;27.33;;;12.50;;
84161;SDS011;74285;52.372;12.924;2024-03-02T11:14:43;28.75;;;12.23;;
84161;SDS011;74285;52.372;12.924;2024-03-02T11:19:33;23.20;;;12.67;;
84161;SDS011;74285;52.372;12.924;2024-03-02T11:26:52;25.27;;;12.20;;
84161;SDS011;74285;52.372;12.924;2024-03-02T11:32:01;26.77;;;11.85;;
84161;SDS011;74285;52.372;12.924;2024-03-02T11:34:31;26.83;;;13.32;;
84161;SDS011;74285;52.372;12.924;2024-03-02T11:36:57;24.70;;;12.77;;
84161;SDS011;74285;52.372;12.924;2024-03-02T11:39:24;24.48;;;12.65;;
84161;SDS011;74285;52.372;12.924;2024-03-02T11:44:15;23.07;;;11.43;;
84161;SDS011;74285;52.372;12.924;2024-03-02T11:46:41;28.30;;;12.35;;
84161;SDS011;74285;52.372;12.924;2024-03-02T11:51:32;22.40;;;10.97;;
84161;SDS011;74285;52.372;12.924;2024-03-02T11:53:58;23.58;;;11.10;;
84161;SDS011;74285;52.372;12.924;2024-03-02T11:58:50;26.63;;;12.63;;
84161;SDS011;74285;52.372;12.924;2024-03-02T12:01:18;24.95;;;12.65;;
84161;SDS011;74285;52.372;12.924;2024-03-02T12:06:09;23.03;;;11.43;;
84161;SDS011;74285;52.372;12.924;2024-03-02T12:11:01;22.40;;;10.53;;
84161;SDS011;74285;52.372;12.924;2024-03-02T12:13:26;26.63;;;13.73;;
84161;SDS011;74285;52.372;12.924;2024-03-02T12:18:18;20.98;;;11.50;;
84161;SDS011;74285;52.372;12.924;2024-03-02T12:20:43;23.15;;;10.35;;
84161;SDS011;74285;52.372;12.924;2024-03-02T12:25:34;26.88;;;14.30;;
84161;SDS011;74285;52.372;12.924;2024-03-02T12:30:26;17.15;;;9.43;;
84161;SDS011;74285;52.372;12.924;2024-03-02T12:32:52;22.15;;;10.20;;
84161;SDS011;74285;52.372;12.924;2024-03-02T12:37:46;25.05;;;12.40;;
84161;SDS011;74285;52.372;12.924;2024-03-02T12:40:13;19.15;;;9.00;;
84161;SDS011;74285;52.372;12.924;2024-03-02T12:42:39;17.92;;;9.27;;
84161;SDS011;74285;52.372;12.924;2024-03-02T12:45:05;18.27;;;8.10;;
84161;SDS011;74285;52.372;12.924;2024-03-02T12:47:31;22.20;;;11.15;;
84161;SDS011;74285;52.372;12.924;2024-03-02T12:49:57;21.65;;;11.98;;
84161;SDS011;74285;52.372;12.924;2024-03-02T12:52:23;16.05;;;7.93;;
84161;SDS011;74285;52.372;12.924;2024-03-02T12:57:20;16.10;;;7.35;;
84161;SDS011;74285;52.372;12.924;2024-03-02T12:59:46;18.00;;;9.27;;
84161;SDS011;74285;52.372;12.924;2024-03-02T13:02:18;18.67;;;9.35;;
84161;SDS011;74285;52.372;12.924;2024-03-02T13:04:43;18.70;;;9.07;;
84161;SDS011;74285;52.372;12.924;2024-03-02T13:07:09;22.97;;;11.10;;
84161;SDS011;74285;52.372;12.924;2024-03-02T13:09:35;17.58;;;9.25;;
84161;SDS011;74285;52.372;12.924;2024-03-02T13:12:01;18.85;;;9.32;;
84161;SDS011;74285;52.372;12.924;2024-03-02T13:16:52;22.60;;;9.52;;
84161;SDS011;74285;52.372;12.924;2024-03-02T13:19:22;19.25;;;10.07;;
84161;SDS011;74285;52.372;12.924;2024-03-02T13:21:47;23.30;;;10.27;;
84161;SDS011;74285;52.372;12.924;2024-03-02T13:24:12;20.33;;;9.80;;
84161;SDS011;74285;52.372;12.924;2024-03-02T13:29:03;17.97;;;9.60;;
84161;SDS011;74285;52.372;12.924;2024-03-02T13:33:53;18.10;;;9.50;;
84161;SDS011;74285;52.372;12.924;2024-03-02T13:36:18;20.98;;;9.50;;
84161;SDS011;74285;52.372;12.924;2024-03-02T13:38:44;21.67;;;9.52;;
84161;SDS011;74285;52.372;12.924;2024-03-02T13:43:36;17.15;;;8.43;;
84161;SDS011;74285;52.372;12.924;2024-03-02T13:46:03;18.98;;;8.95;;
84161;SDS011;74285;52.372;12.924;2024-03-02T13:48:28;16.37;;;8.47;;
84161;SDS011;74285;52.372;12.924;2024-03-02T13:50:54;15.10;;;7.73;;
84161;SDS011;74285;52.372;12.924;2024-03-02T13:55:45;17.38;;;8.65;;
84161;SDS011;74285;52.372;12.924;2024-03-02T14:00:35;15.97;;;7.63;;
84161;SDS011;74285;52.372;12.924;2024-03-02T14:03:02;18.23;;;8.18;;
84161;SDS011;74285;52.372;12.924;2024-03-02T14:05:28;15.68;;;7.72;;
84161;SDS011;74285;52.372;12.924;2024-03-02T14:07:53;17.23;;;8.18;;
84161;SDS011;74285;52.372;12.924;2024-03-02T14:12:47;18.88;;;8.05;;
84161;SDS011;74285;52.372;12.924;2024-03-02T14:15:12;15.40;;;7.07;;
84161;SDS011;74285;52.372;12.924;2024-03-02T14:17:38;16.00;;;7.97;;
84161;SDS011;74285;52.372;12.924;2024-03-02T14:20:04;13.67;;;7.20;;
84161;SDS011;74285;52.372;12.924;2024-03-02T14:24:55;13.75;;;6.75;;
84161;SDS011;74285;52.372;12.924;2024-03-02T14:27:22;11.13;;;5.88;;
84161;SDS011;74285;52.372;12.924;2024-03-02T14:29:47;13.40;;;5.97;;
84161;SDS011;74285;52.372;12.924;2024-03-02T14:32:12;9.57;;;4.97;;
84161;SDS011;74285;52.372;12.924;2024-03-02T14:34:37;11.48;;;5.40;;
84161;SDS011;74285;52.372;12.924;2024-03-02T14:39:28;12.60;;;6.47;;
84161;SDS011;74285;52.372;12.924;2024-03-02T14:41:55;15.15;;;6.65;;
84161;SDS011;74285;52.372;12.924;2024-03-02T14:44:21;12.17;;;6.13;;
84161;SDS011;74285;52.372;12.924;2024-03-02T14:49:11;15.97;;;7.30;;
84161;SDS011;74285;52.372;12.924;2024-03-02T14:54:02;12.50;;;6.00;;
84161;SDS011;74285;52.372;12.924;2024-03-02T14:56:28;15.75;;;7.63;;
84161;SDS011;74285;52.372;12.924;2024-03-02T14:58:53;17.20;;;7.43;;
84161;SDS011;74285;52.372;12.924;2024-03-02T15:01:18;16.93;;;8.37;;
84161;SDS011;74285;52.372;12.924;2024-03-02T15:03:46;13.63;;;7.30;;
84161;SDS011;74285;52.372;12.924;2024-03-02T15:06:11;16.63;;;6.63;;
84161;SDS011;74285;52.372;12.924;2024-03-02T15:08:36;15.53;;;6.53;;
84161;SDS011;74285;52.372;12.924;2024-03-02T15:11:02;14.73;;;6.63;;
84161;SDS011;74285;52.372;12.924;2024-03-02T15:13:28;14.60;;;6.53;;
84161;SDS011;74285;52.372;12.924;2024-03-02T15:15:54;12.77;;;6.03;;
84161;SDS011;74285;52.372;12.924;2024-03-02T15:18:19;11.53;;;6.57;;
84161;SDS011;74285;52.372;12.924;2024-03-02T15:20:44;13.93;;;7.10;;
84161;SDS011;74285;52.372;12.924;2024-03-02T15:25:35;11.90;;;5.35;;